.
WxDataArchive / Data Records for 2015-07-20
2015-07-19 July 2015 2015-07-21

Data Records for Monday, 20 July 2015

Time	Temp	Chill	HIndex	Humid	Dewpt	 Wind 	HiWind	WindDir	Rain 	Barom
-----	----	-----	------	-----	-----	------	------	-------	-----	-----
00:00	72.5	72.5	72.5	85	67.7	0	1	248	0.00	29.837 
00:05	72.5	72.5	72.5	84	67.4	0	1	248	0.00	29.837 
00:10	72.7	72.7	72.7	84	67.6	0	1	248	0.00	29.837 
00:15	72.7	72.7	72.7	83	67.2	0	1	248	0.00	29.835 
00:20	72.7	72.7	72.7	83	67.2	0	1	248	0.00	29.835 
00:25	72.7	72.7	72.7	83	67.2	0	1	248	0.00	29.835 
00:30	72.5	72.5	72.5	84	67.4	0	1	248	0.00	29.832 
00:35	72.3	72.3	72.3	84	67.2	0	1	248	0.00	29.832 
00:40	72.3	72.3	72.3	84	67.2	0	1	248	0.00	29.832 
00:45	72.1	72.1	72.1	84	67.0	0	1	248	0.00	29.830 
00:50	72.0	72.0	72.0	84	66.9	0	1	248	0.00	29.830 
00:55	71.8	71.8	71.8	85	67.0	0	1	248	0.00	29.830 
01:00	71.5	71.5	71.5	85	66.7	0	1	248	0.00	29.829 
01:05	71.3	71.3	71.3	85	66.5	0	2	248	0.00	29.829 
01:10	71.3	71.3	71.3	85	66.5	0	2	248	0.00	29.829 
01:15	71.1	71.1	71.1	85	66.4	0	2	248	0.00	29.828 
01:20	70.9	70.9	70.9	85	66.2	0	1	248	0.00	29.828 
01:25	70.9	70.9	70.9	85	66.2	0	1	248	0.00	29.828 
01:30	70.8	70.8	70.8	85	66.1	0	1	248	0.00	29.826 
01:35	70.6	70.6	70.6	85	65.9	0	1	248	0.00	29.826 
01:40	70.4	70.4	70.4	85	65.7	0	1	248	0.00	29.826 
01:45	70.3	70.3	70.3	85	65.6	0	1	248	0.00	29.822 
01:50	70.1	70.1	70.1	85	65.4	0	1	248	0.00	29.822 
01:55	70.1	70.1	70.1	85	65.4	0	1	248	0.00	29.822 
02:00	69.9	69.9	69.9	85	65.2	0	1	248	0.00	29.817 
02:05	69.8	69.8	69.8	85	65.1	0	0	---	0.00	29.817 
02:10	69.6	69.6	69.6	85	64.9	0	0	---	0.00	29.817 
02:15	69.4	69.4	69.4	86	65.0	0	0	---	0.00	29.822 
02:20	69.3	69.3	69.3	86	64.9	0	0	---	0.00	29.822 
02:25	69.1	69.1	69.1	86	64.7	0	1	248	0.00	29.822 
02:30	68.9	68.9	68.9	86	64.5	0	0	---	0.00	29.821 
02:35	68.9	68.9	68.9	86	64.5	0	0	---	0.00	29.821 
02:40	68.6	68.6	68.6	86	64.2	0	0	---	0.00	29.821 
02:45	68.4	68.4	68.4	87	64.4	0	0	---	0.00	29.821 
02:50	68.3	68.3	68.3	87	64.3	0	0	---	0.00	29.821 
02:55	68.1	68.1	68.1	87	64.1	0	0	---	0.00	29.821 
03:00	67.9	67.9	67.9	88	64.2	0	0	---	0.00	29.824 
03:05	67.8	67.8	67.8	88	64.1	0	0	---	0.00	29.824 
03:10	67.6	67.6	67.6	88	63.9	0	0	---	0.00	29.824 
03:15	67.6	67.6	67.6	88	63.9	0	0	---	0.00	29.817 
03:20	67.3	67.3	67.3	88	63.6	0	0	---	0.00	29.817 
03:25	67.1	67.1	67.1	88	63.4	0	0	---	0.00	29.817 
03:30	66.9	66.9	66.9	88	63.2	0	0	---	0.00	29.820 
03:35	66.8	66.8	66.8	88	63.1	0	0	---	0.00	29.820 
03:40	66.6	66.6	66.6	88	62.9	0	0	---	0.00	29.820 
03:45	66.4	66.4	66.4	89	63.1	0	0	---	0.00	29.819 
03:50	66.3	66.3	66.3	89	63.0	0	0	---	0.00	29.819 
03:55	66.1	66.1	66.1	89	62.8	0	0	---	0.00	29.819 
04:00	66.0	66.0	66.0	89	62.7	0	0	---	0.00	29.815 
04:05	65.8	65.8	65.8	89	62.5	0	0	---	0.00	29.815 
04:10	65.8	65.8	65.8	89	62.5	0	0	---	0.00	29.815 
04:15	65.6	65.6	65.6	90	62.6	0	0	---	0.00	29.820 
04:20	65.5	65.5	65.5	90	62.5	0	0	---	0.00	29.820 
04:25	65.3	65.3	65.3	90	62.3	0	0	---	0.00	29.820 
04:30	65.2	65.2	65.2	90	62.2	0	0	---	0.00	29.818 
04:35	65.0	65.0	65.0	91	62.3	0	0	---	0.00	29.818 
04:40	65.0	65.0	65.0	91	62.3	0	0	---	0.00	29.818 
04:45	64.8	64.8	64.8	91	62.1	0	0	---	0.00	29.818 
04:50	64.7	64.7	64.7	91	62.0	0	0	---	0.00	29.818 
04:55	64.5	64.5	64.5	91	61.8	0	0	---	0.00	29.818 
05:00	64.5	64.5	64.5	91	61.8	0	0	---	0.00	29.819 
05:05	64.3	64.3	64.3	91	61.6	0	0	---	0.00	29.819 
05:10	64.2	64.2	64.2	92	61.8	0	0	---	0.00	29.819 
05:15	64.2	64.2	64.2	92	61.8	0	0	---	0.00	29.821 
05:20	64.0	64.0	64.0	92	61.6	0	0	---	0.00	29.821 
05:25	63.9	63.9	63.9	92	61.5	0	0	---	0.00	29.821 
05:30	63.7	63.7	63.7	92	61.3	0	0	---	0.00	29.819 
05:35	63.7	63.7	63.7	92	61.3	0	0	---	0.00	29.819 
05:40	63.5	63.5	63.5	92	61.1	0	0	---	0.00	29.819 
05:45	63.4	63.4	63.4	92	61.0	0	0	---	0.00	29.824 
05:50	63.2	63.2	63.2	92	60.8	0	0	---	0.00	29.824 
05:55	63.2	63.2	63.2	93	61.1	0	0	---	0.00	29.824 
06:00	63.2	63.2	63.2	93	61.1	0	0	---	0.00	29.827 
06:05	63.2	63.2	63.2	93	61.1	0	0	---	0.00	29.827 
06:10	63.1	63.1	63.1	93	61.0	0	0	---	0.00	29.827 
06:15	62.9	62.9	62.9	93	60.8	0	0	---	0.00	29.830 
06:20	62.9	62.9	62.9	93	60.8	0	0	---	0.00	29.830 
06:25	62.7	62.7	62.7	93	60.6	0	0	---	0.00	29.830 
06:30	62.7	62.7	62.7	93	60.6	0	0	---	0.00	29.825 
06:35	62.6	62.6	62.6	93	60.5	0	0	---	0.00	29.825 
06:40	62.6	62.6	62.6	93	60.5	0	0	---	0.00	29.825 
06:45	62.6	62.6	62.6	93	60.5	0	0	---	0.00	29.826 
06:50	62.6	62.6	62.6	94	60.8	0	0	---	0.00	29.826 
06:55	62.6	62.6	62.6	94	60.8	0	0	---	0.00	29.826 
07:00	62.9	62.9	62.9	94	61.1	0	0	---	0.00	29.823 
07:05	62.9	62.9	62.9	94	61.1	0	0	---	0.00	29.823 
07:10	63.1	63.1	63.1	94	61.3	0	0	---	0.00	29.823 
07:15	63.2	63.2	63.2	94	61.4	0	0	---	0.00	29.822 
07:20	63.4	63.4	63.4	94	61.6	0	0	---	0.00	29.822 
07:25	63.7	63.7	63.7	94	61.9	0	0	---	0.00	29.822 
07:30	63.9	63.9	63.9	94	62.1	0	0	---	0.00	29.823 
07:35	64.2	64.2	64.2	95	62.7	0	0	---	0.00	29.823 
07:40	64.7	64.7	64.7	95	63.2	0	0	---	0.00	29.823 
07:45	65.3	65.3	65.3	95	63.8	0	0	---	0.00	29.820 
07:50	66.1	66.1	66.1	95	64.6	0	0	---	0.00	29.820 
07:55	66.9	66.9	66.9	94	65.1	0	0	---	0.00	29.820 
08:00	67.8	67.8	67.8	92	65.4	0	0	---	0.00	29.821 
08:05	68.6	68.6	68.6	90	65.5	0	1	248	0.00	29.821 
08:10	69.4	69.4	69.4	88	65.7	0	1	248	0.00	29.821 
08:15	69.9	69.9	69.9	84	64.8	0	1	248	0.00	29.821 
08:20	70.6	70.6	70.6	81	64.5	0	1	248	0.00	29.821 
08:25	71.3	71.3	71.3	77	63.7	0	1	248	0.00	29.821 
08:30	72.1	72.1	72.1	75	63.7	0	1	248	0.00	29.818 
08:35	73.0	73.0	73.0	75	64.6	0	0	---	0.00	29.818 
08:40	73.9	73.9	73.9	73	64.7	0	0	---	0.00	29.818 
08:45	74.2	74.2	74.2	72	64.6	0	0	---	0.00	29.809 
08:50	74.7	74.7	74.7	70	64.2	0	1	248	0.00	29.809 
08:55	75.8	75.8	77.4	70	65.3	0	0	---	0.00	29.809 
09:00	76.5	76.5	78.3	63	62.9	0	1	248	0.00	29.802 
09:05	77.0	77.0	78.8	59	61.6	0	1	248	0.00	29.802 
09:10	77.4	77.4	79.1	60	62.4	0	1	248	0.00	29.802 
09:15	77.9	77.9	79.5	58	61.9	0	1	248	0.00	29.809 
09:20	77.9	77.9	79.3	54	59.9	0	1	248	0.00	29.809 
09:25	78.1	78.1	79.6	57	61.6	0	1	248	0.00	29.809 
09:30	78.6	78.6	80.1	57	62.1	0	1	248	0.00	29.804 
09:35	79.0	79.0	80.4	56	61.9	0	1	248	0.00	29.804 
09:40	79.6	79.6	80.8	54	61.5	0	1	248	0.00	29.804 
09:45	79.6	79.6	80.7	53	60.9	0	2	248	0.00	29.797 
09:50	79.8	79.8	81.1	55	62.2	0	1	248	0.00	29.797 
09:55	79.9	79.9	81.1	54	61.7	0	2	248	0.00	29.797 
10:00	80.1	80.1	81.2	53	61.4	0	1	248	0.00	29.786 
10:05	80.3	80.3	81.6	55	62.6	0	1	248	0.00	29.786 
10:10	80.3	80.3	81.1	50	59.9	0	3	248	0.00	29.786 
10:15	80.5	80.5	81.3	50	60.1	1	2	248	0.00	29.781 
10:20	80.5	80.5	81.6	53	61.8	0	1	248	0.00	29.781 
10:25	80.7	80.7	81.7	52	61.4	0	1	248	0.00	29.781 
10:30	80.7	80.7	81.4	50	60.3	0	2	248	0.00	29.785 
10:35	80.5	80.5	81.4	51	60.7	0	1	248	0.00	29.785 
10:40	80.5	80.5	81.0	48	59.0	1	3	248	0.00	29.785 
10:45	80.7	80.7	81.3	49	59.7	0	3	248	0.00	29.788 
10:50	81.1	81.1	82.0	51	61.2	0	1	248	0.00	29.788 
10:55	81.1	81.1	81.8	50	60.7	0	1	248	0.00	29.788 
11:00	80.7	80.7	81.3	49	59.7	0	2	248	0.00	29.788 
11:05	81.1	81.1	81.6	48	59.5	0	1	248	0.00	29.788 
11:10	81.4	81.4	82.1	50	60.9	0	2	248	0.00	29.788 
11:15	81.6	81.6	82.1	48	60.0	1	2	248	0.00	29.790 
11:20	81.8	81.8	82.3	48	60.2	0	3	248	0.00	29.790 
11:25	81.6	81.6	82.2	49	60.6	0	3	248	0.00	29.790 
11:30	81.6	81.6	82.1	48	60.0	0	2	248	0.00	29.790 
11:35	81.8	81.8	82.8	52	62.4	0	1	248	0.00	29.790 
11:40	82.2	82.2	82.7	48	60.5	1	4	248	0.00	29.790 
11:45	81.8	81.8	82.6	50	61.3	0	2	45	0.00	29.788 
11:50	81.8	81.8	82.7	51	61.9	0	1	45	0.00	29.788 
11:55	81.4	81.4	82.0	49	60.4	0	2	22	0.00	29.788 
12:00	81.4	81.4	82.3	51	61.5	0	1	0	0.00	29.784 
12:05	81.4	81.4	82.3	51	61.5	1	3	0	0.00	29.784 
12:10	81.6	81.6	82.6	52	62.2	0	1	0	0.00	29.784 
12:15	82.2	82.2	82.7	48	60.5	0	1	0	0.00	29.776 
12:20	82.6	82.6	84.0	53	63.7	0	1	0	0.00	29.776 
12:25	82.8	82.8	83.7	50	62.2	0	2	0	0.00	29.776 
12:30	82.8	82.8	83.3	48	61.1	0	2	0	0.00	29.771 
12:35	83.0	83.0	83.9	50	62.4	0	2	0	0.00	29.771 
12:40	82.8	82.8	83.5	49	61.7	0	2	0	0.00	29.771 
12:45	82.2	82.2	83.3	52	62.8	1	3	0	0.00	29.769 
12:50	82.0	82.0	82.2	46	59.1	1	4	0	0.00	29.769 
12:55	81.8	81.8	82.3	48	60.2	1	3	292	0.00	29.769 
13:00	82.2	82.2	83.5	53	63.3	0	2	292	0.00	29.769 
13:05	82.4	82.4	83.2	50	61.9	0	1	292	0.00	29.769 
13:10	82.4	82.4	83.0	49	61.3	0	3	292	0.00	29.769 
13:15	82.8	82.8	83.5	49	61.7	0	2	292	0.00	29.769 
13:20	82.8	82.8	82.9	45	59.3	1	3	292	0.00	29.769 
13:25	82.6	82.6	82.5	44	58.4	1	2	292	0.00	29.769 
13:30	82.8	82.8	82.9	45	59.3	1	4	292	0.00	29.769 
13:35	82.8	82.8	82.9	45	59.3	2	5	292	0.00	29.769 
13:40	82.8	82.8	82.9	45	59.3	1	4	292	0.00	29.769 
13:45	82.8	82.8	82.7	44	58.6	1	4	292	0.00	29.766 
13:50	83.0	83.0	83.1	45	59.4	1	5	315	0.00	29.766 
13:55	83.4	83.4	83.7	46	60.4	1	3	292	0.00	29.766 
14:00	83.4	83.4	83.5	45	59.8	2	5	292	0.00	29.764 
14:05	83.4	83.4	83.7	46	60.4	0	4	292	0.00	29.764 
14:10	83.6	83.6	84.1	47	61.2	1	3	292	0.00	29.764 
14:15	83.6	83.6	83.5	44	59.3	2	4	292	0.00	29.761 
14:20	83.6	83.6	84.1	47	61.2	2	5	270	0.00	29.761 
14:25	83.4	83.4	84.0	48	61.6	2	6	292	0.00	29.761 
14:30	83.2	83.2	83.6	47	60.8	3	5	270	0.00	29.769 
14:35	83.2	83.2	84.1	50	62.6	2	4	270	0.00	29.769 
14:40	83.4	83.4	84.2	49	62.2	2	5	292	0.00	29.769 
14:45	83.4	83.4	83.8	47	61.0	2	5	292	0.00	29.767 
14:50	83.8	83.8	84.7	49	62.6	1	4	292	0.00	29.767 
14:55	83.8	83.8	84.7	49	62.6	2	4	292	0.00	29.767 
15:00	83.8	83.8	84.7	49	62.6	2	5	292	0.00	29.758 
15:05	83.8	83.8	84.9	50	63.1	1	4	292	0.00	29.758 
15:10	84.0	84.0	84.3	46	61.0	2	4	292	0.00	29.758 
15:15	84.0	84.0	84.5	47	61.6	3	5	292	0.00	29.757 
15:20	84.0	84.0	85.1	50	63.3	1	5	292	0.00	29.757 
15:25	83.6	83.6	84.4	49	62.4	2	5	315	0.00	29.757 
15:30	83.4	83.4	83.8	47	61.0	2	5	292	0.00	29.758 
15:35	83.0	83.0	83.2	46	60.1	3	5	292	0.00	29.758 
15:40	82.6	82.6	83.3	49	61.5	2	6	292	0.00	29.758 
15:45	82.6	82.6	83.3	49	61.5	2	5	270	0.00	29.759 
15:50	82.6	82.6	83.4	50	62.0	2	4	270	0.00	29.759 
15:55	82.8	82.8	83.8	51	62.8	3	7	292	0.00	29.759 
16:00	83.2	83.2	84.0	49	62.0	3	9	292	0.00	29.755 
16:05	83.4	83.4	84.0	48	61.6	2	6	292	0.00	29.755 
16:10	83.6	83.6	84.2	48	61.8	3	6	270	0.00	29.755 
16:15	84.0	84.0	84.7	48	62.2	3	6	292	0.00	29.747 
16:20	84.1	84.1	84.6	47	61.7	3	5	315	0.00	29.747 
16:25	84.1	84.1	84.8	48	62.3	2	5	292	0.00	29.747 
16:30	84.1	84.1	84.8	48	62.3	2	5	270	0.00	29.743 
16:35	84.1	84.1	84.6	47	61.7	2	5	292	0.00	29.743 
16:40	84.0	84.0	84.5	47	61.6	1	5	292	0.00	29.743 
16:45	83.6	83.6	84.6	50	63.0	1	3	292	0.00	29.740 
16:50	83.2	83.2	83.8	48	61.4	1	4	292	0.00	29.740 
16:55	82.8	82.8	83.5	49	61.7	1	3	292	0.00	29.740 
17:00	82.6	82.6	83.1	48	60.9	2	4	292	0.00	29.734 
17:05	82.2	82.2	83.0	50	61.7	2	4	315	0.00	29.734 
17:10	82.0	82.0	82.9	51	62.1	1	3	315	0.00	29.734 
17:15	81.6	81.6	82.3	50	61.1	2	4	292	0.00	29.731 
17:20	81.4	81.4	82.3	51	61.5	1	3	292	0.00	29.731 
17:25	81.2	81.2	82.2	52	61.9	1	3	292	0.00	29.731 
17:30	81.2	81.2	82.3	53	62.4	1	4	292	0.00	29.726 
17:35	81.1	81.1	82.3	54	62.9	0	3	292	0.00	29.726 
17:40	81.1	81.1	82.3	54	62.9	0	2	292	0.00	29.726 
17:45	81.1	81.1	82.2	53	62.3	2	4	292	0.00	29.721 
17:50	81.1	81.1	82.2	53	62.3	2	4	292	0.00	29.721 
17:55	80.9	80.9	81.9	52	61.6	2	4	292	0.00	29.721 
18:00	80.9	80.9	81.6	50	60.5	1	3	315	0.00	29.718 
18:05	80.9	80.9	81.8	51	61.0	2	4	315	0.00	29.718 
18:10	80.7	80.7	81.4	50	60.3	2	4	270	0.00	29.718 
18:15	80.5	80.5	81.3	50	60.1	2	4	270	0.00	29.718 
18:20	80.5	80.5	81.4	51	60.7	1	3	270	0.00	29.718 
18:25	80.3	80.3	81.1	50	59.9	1	5	270	0.00	29.718 
18:30	80.3	80.3	81.2	51	60.5	1	3	270	0.00	29.718 
18:35	80.3	80.3	81.3	52	61.0	1	3	270	0.00	29.718 
18:40	80.3	80.3	81.3	52	61.0	1	3	270	0.00	29.718 
18:45	80.5	80.5	81.6	53	61.8	1	3	270	0.00	29.718 
18:50	80.9	80.9	82.1	54	62.7	0	2	270	0.00	29.718 
18:55	80.9	80.9	82.0	53	62.1	0	2	270	0.00	29.718 
19:00	81.1	81.1	82.1	52	61.8	2	4	270	0.00	29.720 
19:05	81.2	81.2	82.1	51	61.3	2	4	292	0.00	29.720 
19:10	81.1	81.1	82.0	51	61.2	1	4	292	0.00	29.720 
19:15	81.1	81.1	82.1	52	61.8	1	4	292	0.00	29.723 
19:20	80.9	80.9	82.0	53	62.1	0	1	292	0.00	29.723 
19:25	80.7	80.7	81.9	54	62.5	0	2	292	0.00	29.723 
19:30	80.3	80.3	81.3	52	61.0	1	3	292	0.00	29.726 
19:35	80.1	80.1	81.2	53	61.4	1	3	292	0.00	29.726 
19:40	80.1	80.1	81.2	53	61.4	1	3	292	0.00	29.726 
19:45	79.9	79.9	81.0	53	61.2	1	3	292	0.00	29.727 
19:50	79.9	79.9	81.1	54	61.7	1	3	292	0.00	29.727 
19:55	79.8	79.8	81.1	55	62.2	0	1	292	0.00	29.727 
20:00	79.8	79.8	81.2	56	62.7	0	1	292	0.00	29.727 
20:05	79.6	79.6	81.0	56	62.5	0	1	292	0.00	29.727 
20:10	79.6	79.6	80.9	55	62.0	0	2	292	0.00	29.727 
20:15	79.6	79.6	81.0	56	62.5	0	1	292	0.00	29.722 
20:20	79.4	79.4	80.9	57	62.8	0	1	292	0.00	29.722 
20:25	79.4	79.4	80.9	58	63.3	0	0	---	0.00	29.722 
20:30	79.2	79.2	80.7	58	63.1	0	0	---	0.00	29.722 
20:35	79.0	79.0	80.5	58	62.9	0	0	---	0.00	29.722 
20:40	78.8	78.8	80.4	59	63.2	0	0	---	0.00	29.722 
20:45	78.6	78.6	80.3	60	63.5	0	0	---	0.00	29.720 
20:50	78.5	78.5	80.2	61	63.9	0	0	---	0.00	29.720 
20:55	78.3	78.3	80.0	60	63.2	0	0	---	0.00	29.720 
21:00	78.1	78.1	79.8	61	63.5	0	0	---	0.00	29.719 
21:05	78.1	78.1	79.9	62	64.0	0	0	---	0.00	29.719 
21:10	77.7	77.7	79.4	62	63.6	0	0	---	0.00	29.719 
21:15	77.6	77.6	79.4	62	63.5	0	0	---	0.00	29.719 
21:20	77.4	77.4	79.2	63	63.8	0	0	---	0.00	29.719 
21:25	77.2	77.2	79.0	63	63.6	0	0	---	0.00	29.719 
21:30	77.0	77.0	78.8	64	63.9	0	0	---	0.00	29.716 
21:35	76.8	76.8	78.6	65	64.1	0	0	---	0.00	29.716 
21:40	76.7	76.7	78.5	66	64.5	0	0	---	0.00	29.716 
21:45	76.5	76.5	78.3	67	64.7	0	0	---	0.00	29.714 
21:50	76.3	76.3	78.1	67	64.5	0	0	---	0.00	29.714 
21:55	76.0	76.0	77.7	68	64.7	0	0	---	0.00	29.714 
22:00	75.8	75.8	77.5	69	64.9	0	0	---	0.00	29.709 
22:05	75.6	75.6	77.2	70	65.1	0	0	---	0.00	29.709 
22:10	75.4	75.4	77.1	70	64.9	0	0	---	0.00	29.709 
22:15	75.3	75.3	76.9	71	65.2	0	0	---	0.00	29.703 
22:20	75.1	75.1	76.6	72	65.4	0	0	---	0.00	29.703 
22:25	75.1	75.1	76.5	73	65.8	0	0	---	0.00	29.703 
22:30	75.1	75.1	76.4	74	66.2	0	0	---	0.00	29.698 
22:35	74.9	74.9	74.9	74	66.0	0	0	---	0.00	29.698 
22:40	74.7	74.7	74.7	74	65.8	0	0	---	0.00	29.698 
22:45	74.6	74.6	74.6	75	66.1	0	0	---	0.00	29.702 
22:50	74.4	74.4	74.4	75	65.9	0	0	---	0.00	29.702 
22:55	74.4	74.4	74.4	75	65.9	0	0	---	0.00	29.702 
23:00	74.2	74.2	74.2	76	66.1	0	0	---	0.00	29.705 
23:05	74.2	74.2	74.2	76	66.1	0	0	---	0.00	29.705 
23:10	74.0	74.0	74.0	77	66.3	0	0	---	0.00	29.705 
23:15	74.0	74.0	74.0	77	66.3	0	0	---	0.00	29.703 
23:20	73.9	73.9	73.9	77	66.2	0	0	---	0.00	29.703 
23:25	73.7	73.7	73.7	78	66.4	0	0	---	0.00	29.703 
23:30	73.7	73.7	73.7	78	66.4	0	0	---	0.00	29.698 
23:35	73.5	73.5	73.5	78	66.2	0	0	---	0.00	29.698 
23:40	73.5	73.5	73.5	79	66.6	0	0	---	0.00	29.698 
23:45	73.3	73.3	73.3	79	66.4	0	0	---	0.00	29.695 
23:50	73.2	73.2	73.2	80	66.6	0	0	---	0.00	29.695 
23:55	73.0	73.0	73.0	80	66.5	0	0	---	0.00	29.695 

CoCoRaHS
IN-AL-39
A2 Web Hosting
Creative Commons License
GoDaddy
search engine by freefind advanced

loaded 2018-11-15 03:03:24 • last modified 2010-11-18 10:43:29
Privacy PolicyDisclaimer
• wx.awcolley.com is powered by PmWiki v.2002016 •
• all content (unless otherwise noted) © 2018 A W Colley